createdAt,value
2019-02-06T00:00:55.983Z,14.20
2019-02-06T00:01:55.972Z,17.10
2019-02-06T00:02:55.971Z,13.70
2019-02-06T00:03:55.884Z,11.80
2019-02-06T00:04:55.889Z,15.30
2019-02-06T00:05:55.869Z,10.80
2019-02-06T00:06:55.929Z,16.30
2019-02-06T00:07:55.835Z,14.30
2019-02-06T00:08:55.813Z,10.60
2019-02-06T00:09:55.797Z,12.70
2019-02-06T00:11:02.783Z,13.40
2019-02-06T00:11:55.792Z,13.50
2019-02-06T00:13:04.847Z,13.30
2019-02-06T00:13:55.800Z,24.30
2019-02-06T00:14:56.779Z,13.50
2019-02-06T00:15:55.759Z,14.70
2019-02-06T00:16:55.792Z,12.60
2019-02-06T00:17:55.723Z,13.90
2019-02-06T00:18:55.801Z,14.10
2019-02-06T00:19:55.697Z,12.50
2019-02-06T00:20:55.783Z,9.70
2019-02-06T00:21:55.793Z,13.20
2019-02-06T00:22:55.698Z,17.50
2019-02-06T00:23:55.647Z,13.20
2019-02-06T00:24:55.708Z,14.20
2019-02-06T00:25:55.627Z,9.00
2019-02-06T00:26:55.644Z,13.60
2019-02-06T00:27:55.608Z,20.20
2019-02-06T00:28:55.664Z,12.40
2019-02-06T00:29:55.591Z,20.50
2019-02-06T00:30:55.656Z,12.50
2019-02-06T00:31:55.576Z,11.80
2019-02-06T00:32:55.664Z,12.40
2019-02-06T00:33:55.539Z,11.10
2019-02-06T00:34:55.576Z,13.20
2019-02-06T00:35:55.534Z,19.40
2019-02-06T00:36:55.617Z,17.10
2019-02-06T00:37:55.503Z,14.90
2019-02-06T00:38:55.506Z,10.80
2019-02-06T00:39:55.476Z,21.70
2019-02-06T00:40:55.526Z,15.60
2019-02-06T00:41:55.472Z,12.70
2019-02-06T00:42:55.545Z,20.20
2019-02-06T00:43:55.463Z,18.40
2019-02-06T00:44:55.436Z,13.20
2019-02-06T00:45:55.408Z,14.30
2019-02-06T00:46:55.485Z,16.30
2019-02-06T00:47:55.387Z,17.30
2019-02-06T00:48:55.468Z,18.80
2019-02-06T00:49:55.366Z,14.20
2019-02-06T00:50:55.378Z,11.30
2019-02-06T00:51:55.380Z,15.30
2019-02-06T00:52:55.394Z,17.20
2019-02-06T00:53:55.326Z,18.40
2019-02-06T00:54:55.407Z,14.20
2019-02-06T00:55:55.311Z,13.30
2019-02-06T00:56:55.344Z,16.50
2019-02-06T00:57:55.298Z,17.40
2019-02-06T00:58:55.327Z,16.50
2019-02-06T00:59:58.304Z,16.70
2019-02-06T01:00:56.264Z,13.70
2019-02-06T01:01:55.245Z,9.90
2019-02-06T01:02:55.253Z,14.80
2019-02-06T01:03:55.220Z,19.30
2019-02-06T01:04:55.269Z,16.30
2019-02-06T01:05:55.190Z,13.90
2019-02-06T01:06:55.308Z,13.70
2019-02-06T01:07:55.171Z,22.00
2019-02-06T01:08:55.191Z,17.30
2019-02-06T01:09:55.152Z,20.50
2019-02-06T01:10:55.227Z,14.80
2019-02-06T01:11:55.151Z,19.00
2019-02-06T01:12:55.221Z,15.30
2019-02-06T01:13:55.119Z,19.50
2019-02-06T01:14:55.143Z,13.00
2019-02-06T01:15:55.109Z,18.80
2019-02-06T01:16:55.148Z,15.70
2019-02-06T01:17:55.101Z,16.20
2019-02-06T01:18:55.176Z,14.40
2019-02-06T01:19:55.060Z,20.20
2019-02-06T01:20:55.071Z,15.30
2019-02-06T01:21:55.017Z,17.60
2019-02-06T01:22:55.115Z,11.10
2019-02-06T01:23:55.012Z,14.80
2019-02-06T01:24:55.104Z,12.90
2019-02-06T01:25:54.974Z,25.20
2019-02-06T01:26:55.010Z,15.20
2019-02-06T01:27:54.979Z,15.90
2019-02-06T01:28:55.032Z,16.00
2019-02-06T01:29:54.944Z,21.10
2019-02-06T01:30:54.950Z,23.70
2019-02-06T01:31:54.908Z,16.00
2019-02-06T01:32:54.983Z,19.70
2019-02-06T01:33:54.915Z,18.10
2019-02-06T01:34:54.975Z,13.30
2019-02-06T01:35:54.883Z,12.80
2019-02-06T01:36:54.887Z,21.00
2019-02-06T01:37:54.865Z,16.60
2019-02-06T01:38:54.937Z,17.50
2019-02-06T01:39:54.828Z,21.30
2019-02-06T01:40:54.904Z,12.50
2019-02-06T01:41:54.814Z,16.30
2019-02-06T01:42:56.152Z,12.50
2019-02-06T01:43:54.800Z,9.30
2019-02-06T01:44:54.785Z,14.10
2019-02-06T01:45:54.759Z,17.20
2019-02-06T01:47:09.760Z,16.00
2019-02-06T01:47:54.769Z,14.10
2019-02-06T01:48:54.765Z,19.00
2019-02-06T01:49:54.718Z,16.20
2019-02-06T01:50:54.714Z,12.00
2019-02-06T01:51:54.706Z,13.30
2019-02-06T01:52:54.717Z,19.30
2019-02-06T01:53:54.679Z,13.10
2019-02-06T01:54:54.679Z,12.20
2019-02-06T01:55:54.657Z,18.50
2019-02-06T01:56:54.659Z,8.80
2019-02-06T01:57:54.669Z,15.80
2019-02-06T01:58:54.638Z,15.10
2019-02-06T01:59:54.631Z,14.40
2019-02-06T02:00:54.606Z,11.90
2019-02-06T02:01:54.590Z,12.90
2019-02-06T02:02:54.628Z,16.20
2019-02-06T02:03:54.578Z,13.80
2019-02-06T02:04:54.562Z,17.00
2019-02-06T02:06:01.946Z,16.50
2019-02-06T02:06:55.533Z,16.90
2019-02-06T02:07:54.539Z,11.20
2019-02-06T02:08:54.517Z,17.10
2019-02-06T02:09:54.522Z,13.20
2019-02-06T02:10:54.500Z,7.50
2019-02-06T02:11:54.507Z,13.50
2019-02-06T02:12:54.496Z,12.10
2019-02-06T02:13:54.472Z,16.20
2019-02-06T02:14:54.473Z,12.10
2019-02-06T02:15:54.460Z,27.50
2019-02-06T02:16:54.427Z,16.90
2019-02-06T02:17:54.454Z,21.30
2019-02-06T02:18:54.404Z,12.50
2019-02-06T02:19:54.400Z,15.80
2019-02-06T02:20:54.404Z,14.50
2019-02-06T02:21:54.404Z,14.10
2019-02-06T02:22:54.363Z,15.40
2019-02-06T02:23:54.368Z,13.60
2019-02-06T02:24:54.342Z,13.90
2019-02-06T02:25:54.340Z,9.00
2019-02-06T02:26:54.468Z,10.40
2019-02-06T02:27:54.342Z,13.30
2019-02-06T02:28:54.316Z,7.80
2019-02-06T02:29:54.295Z,14.40
2019-02-06T02:30:54.279Z,9.60
2019-02-06T02:31:54.281Z,16.50
2019-02-06T02:32:54.259Z,9.80
2019-02-06T02:33:54.265Z,15.00
2019-02-06T02:34:54.236Z,9.10
2019-02-06T02:35:54.239Z,7.80
2019-02-06T02:36:54.215Z,8.20
2019-02-06T02:37:54.213Z,9.20
2019-02-06T02:38:54.233Z,13.70
2019-02-06T02:39:54.257Z,12.90
2019-02-06T02:40:54.172Z,14.20
2019-02-06T02:41:54.219Z,17.20
2019-02-06T02:42:54.157Z,13.00
2019-02-06T02:43:54.162Z,12.10
2019-02-06T02:44:54.128Z,15.00
2019-02-06T02:45:54.140Z,14.70
2019-02-06T02:46:54.109Z,11.00
2019-02-06T02:47:54.122Z,13.10
2019-02-06T02:48:54.110Z,9.60
2019-02-06T02:49:54.087Z,10.80
2019-02-06T02:50:54.068Z,13.30
2019-02-06T02:51:54.072Z,17.60
2019-02-06T02:52:54.045Z,12.20
2019-02-06T02:53:54.053Z,12.40
2019-02-06T02:54:54.023Z,11.20
2019-02-06T02:55:54.039Z,8.40
2019-02-06T02:56:54.016Z,12.40
2019-02-06T02:57:54.012Z,14.60
2019-02-06T02:58:53.998Z,13.50
2019-02-06T02:59:53.988Z,11.40
2019-02-06T03:00:53.959Z,9.40
2019-02-06T03:01:53.960Z,12.30
2019-02-06T03:02:53.945Z,8.50
2019-02-06T03:03:53.971Z,12.10
2019-02-06T03:04:53.919Z,11.80
2019-02-06T03:05:53.914Z,11.40
2019-02-06T03:06:53.894Z,8.40
2019-02-06T03:07:53.891Z,9.00
2019-02-06T03:08:53.900Z,7.40
2019-02-06T03:09:53.889Z,9.20
2019-02-06T03:10:55.136Z,8.80
2019-02-06T03:11:53.850Z,6.70
2019-02-06T03:12:53.838Z,14.90
2019-02-06T03:13:53.837Z,12.00
2019-02-06T03:14:54.029Z,9.70
2019-02-06T03:15:53.811Z,13.30
2019-02-06T03:16:53.818Z,10.90
2019-02-06T03:17:53.787Z,12.90
2019-02-06T03:18:53.789Z,16.50
2019-02-06T03:19:53.785Z,10.30
2019-02-06T03:20:53.753Z,8.10
2019-02-06T03:21:53.751Z,8.70
2019-02-06T03:22:53.740Z,10.70
2019-02-06T03:23:53.735Z,11.50
2019-02-06T03:24:53.707Z,7.90
2019-02-06T03:25:53.703Z,9.40
2019-02-06T03:26:53.693Z,12.00
2019-02-06T03:27:53.692Z,10.80
2019-02-06T03:28:53.710Z,11.40
2019-02-06T03:29:53.667Z,9.90
2019-02-06T03:30:53.664Z,9.40
2019-02-06T03:31:53.646Z,7.50
2019-02-06T03:32:53.630Z,11.90
2019-02-06T03:33:53.662Z,9.90
2019-02-06T03:34:53.602Z,9.40
2019-02-06T03:35:53.602Z,11.00
2019-02-06T03:36:53.578Z,16.10
2019-02-06T03:37:53.582Z,7.20
2019-02-06T03:38:53.565Z,9.20
2019-02-06T03:39:53.567Z,10.40
2019-02-06T03:40:53.562Z,12.60
2019-02-06T03:41:53.536Z,9.70
2019-02-06T03:42:53.517Z,10.90
2019-02-06T03:43:53.514Z,9.60
2019-02-06T03:44:53.508Z,11.30
2019-02-06T03:45:53.500Z,7.40
2019-02-06T03:46:53.480Z,8.80
2019-02-06T03:47:53.474Z,11.40
2019-02-06T03:48:53.454Z,9.30
2019-02-06T03:49:53.474Z,8.60
2019-02-06T03:50:53.436Z,9.00
2019-02-06T03:51:53.426Z,7.20
2019-02-06T03:52:53.419Z,7.60
2019-02-06T03:53:53.410Z,14.80
2019-02-06T03:54:53.413Z,8.20
2019-02-06T03:55:53.414Z,6.70
2019-02-06T03:56:53.370Z,8.70
2019-02-06T03:57:53.386Z,8.00
2019-02-06T03:58:53.347Z,8.70
2019-02-06T03:59:53.357Z,8.30
2019-02-06T04:00:53.329Z,6.30
2019-02-06T04:01:53.320Z,9.90
2019-02-06T04:02:53.308Z,8.90
2019-02-06T04:03:53.298Z,6.50
2019-02-06T04:04:53.296Z,7.70
2019-02-06T04:05:53.303Z,4.80
2019-02-06T04:07:00.705Z,7.80
2019-02-06T04:07:54.327Z,7.80
2019-02-06T04:08:53.260Z,4.10
2019-02-06T04:09:53.243Z,6.70
2019-02-06T04:10:53.223Z,5.50
2019-02-06T04:11:53.204Z,4.80
2019-02-06T04:12:53.206Z,6.20
2019-02-06T04:13:53.196Z,7.50
2019-02-06T04:14:53.199Z,6.40
2019-02-06T04:15:53.172Z,7.60
2019-02-06T04:16:53.169Z,5.60
2019-02-06T04:17:54.445Z,3.50
2019-02-06T04:18:53.150Z,6.90
2019-02-06T04:19:53.143Z,5.60
2019-02-06T04:20:53.120Z,5.60
2019-02-06T04:21:53.100Z,9.20
2019-02-06T04:22:53.103Z,5.50
2019-02-06T04:23:53.098Z,10.10
2019-02-06T04:24:53.086Z,5.70
2019-02-06T04:25:53.064Z,5.40
2019-02-06T04:26:53.066Z,4.90
2019-02-06T04:27:53.042Z,9.50
2019-02-06T04:28:53.044Z,6.40
2019-02-06T04:29:53.033Z,7.80
2019-02-06T04:30:53.019Z,3.10
2019-02-06T04:31:53.002Z,7.50
2019-02-06T04:32:53.008Z,6.40
2019-02-06T04:33:52.978Z,4.00
2019-02-06T04:34:53.039Z,5.70
2019-02-06T04:35:52.968Z,4.70
2019-02-06T04:37:05.786Z,3.80
2019-02-06T04:37:53.928Z,4.80
2019-02-06T04:38:52.939Z,5.30
2019-02-06T04:39:52.909Z,5.00
2019-02-06T04:40:52.920Z,6.90
2019-02-06T04:41:52.912Z,3.90
2019-02-06T04:42:52.883Z,5.00
2019-02-06T04:43:52.876Z,7.80
2019-02-06T04:44:52.879Z,3.20
2019-02-06T04:45:52.869Z,3.10
2019-02-06T04:46:52.842Z,4.40
2019-02-06T04:47:52.856Z,8.40
2019-02-06T04:48:52.821Z,8.40
2019-02-06T04:49:52.818Z,2.70
2019-02-06T04:50:52.827Z,4.40
2019-02-06T04:51:52.780Z,4.30
2019-02-06T04:52:52.783Z,3.70
2019-02-06T04:53:52.760Z,7.10
2019-02-06T04:54:52.759Z,5.70
2019-02-06T04:55:52.754Z,5.70
2019-02-06T04:56:52.741Z,5.10
2019-02-06T04:57:52.727Z,2.80
2019-02-06T04:58:52.720Z,5.00
2019-02-06T04:59:52.698Z,3.60
2019-02-06T05:00:52.725Z,3.80
2019-02-06T05:01:52.689Z,3.70
2019-02-06T05:02:52.668Z,3.60
2019-02-06T05:03:52.666Z,3.30
2019-02-06T05:04:52.656Z,5.10
2019-02-06T05:05:52.649Z,4.40
2019-02-06T05:06:52.648Z,3.40
2019-02-06T05:07:52.744Z,4.30
2019-02-06T05:08:52.608Z,4.90
2019-02-06T05:09:52.604Z,4.50
2019-02-06T05:10:52.599Z,3.50
2019-02-06T05:11:52.571Z,3.60
2019-02-06T05:12:52.564Z,3.10
2019-02-06T05:13:52.546Z,4.40
2019-02-06T05:14:52.540Z,4.70
2019-02-06T05:15:52.541Z,13.00
2019-02-06T05:16:52.528Z,4.20
2019-02-06T05:17:55.711Z,2.30
2019-02-06T05:18:52.506Z,3.00
2019-02-06T05:19:52.490Z,4.70
2019-02-06T05:20:52.506Z,10.00
2019-02-06T05:21:52.466Z,3.30
2019-02-06T05:22:52.533Z,7.30
2019-02-06T05:23:52.460Z,4.00
2019-02-06T05:24:52.431Z,4.30
2019-02-06T05:25:52.445Z,4.90
2019-02-06T05:26:52.410Z,5.70
2019-02-06T05:27:52.403Z,4.70
2019-02-06T05:28:52.400Z,6.20
2019-02-06T05:29:52.380Z,5.50
2019-02-06T05:30:52.381Z,5.00
2019-02-06T05:31:52.353Z,2.60
2019-02-06T05:32:52.348Z,6.10
2019-02-06T05:33:52.346Z,2.80
2019-02-06T05:34:52.343Z,5.20
2019-02-06T05:35:52.330Z,5.70
2019-02-06T05:36:52.333Z,3.70
2019-02-06T05:37:52.292Z,4.80
2019-02-06T05:38:52.300Z,4.10
2019-02-06T05:39:52.288Z,4.60
2019-02-06T05:40:52.288Z,2.30
2019-02-06T05:41:52.263Z,5.60
2019-02-06T05:42:52.914Z,2.40
2019-02-06T05:43:52.227Z,6.90
2019-02-06T05:44:52.226Z,5.00
2019-02-06T05:45:52.224Z,3.00
2019-02-06T05:46:52.221Z,2.90
2019-02-06T05:47:52.225Z,3.10
2019-02-06T05:48:52.193Z,4.00
2019-02-06T05:49:52.164Z,5.30
2019-02-06T05:50:52.168Z,5.80
2019-02-06T05:51:52.156Z,4.00
2019-02-06T05:52:52.137Z,5.60
2019-02-06T05:53:52.119Z,4.20
2019-02-06T05:54:52.112Z,2.90
2019-02-06T05:55:52.100Z,2.50
2019-02-06T05:56:52.111Z,4.30
2019-02-06T05:57:52.082Z,3.70
2019-02-06T05:58:52.079Z,4.10
2019-02-06T05:59:52.056Z,2.80
2019-02-06T06:00:52.080Z,3.10
2019-02-06T06:01:52.063Z,2.10
2019-02-06T06:02:52.041Z,3.90
2019-02-06T06:03:52.012Z,4.80
2019-02-06T06:04:52.011Z,7.40
2019-02-06T06:05:51.997Z,3.40
2019-02-06T06:06:52.005Z,2.00
2019-02-06T06:07:51.965Z,2.80
2019-02-06T06:08:51.967Z,3.10
2019-02-06T06:09:51.968Z,5.50
2019-02-06T06:10:51.953Z,3.30
2019-02-06T06:11:51.954Z,1.90
2019-02-06T06:12:51.924Z,3.10
2019-02-06T06:13:51.906Z,2.40
2019-02-06T06:14:51.902Z,3.70
2019-02-06T06:15:51.883Z,5.30
2019-02-06T06:16:51.895Z,3.40
2019-02-06T06:17:51.869Z,3.40
2019-02-06T06:18:51.853Z,2.90
2019-02-06T06:19:51.843Z,3.50
2019-02-06T06:20:51.844Z,5.10
2019-02-06T06:21:51.833Z,3.90
2019-02-06T06:22:51.828Z,5.00
2019-02-06T06:23:51.799Z,6.20
2019-02-06T06:24:51.790Z,2.60
2019-02-06T06:25:51.778Z,4.80
2019-02-06T06:26:51.785Z,2.90
2019-02-06T06:27:51.753Z,3.20
2019-02-06T06:28:51.758Z,3.80
2019-02-06T06:29:51.729Z,3.90
2019-02-06T06:30:51.721Z,2.60
2019-02-06T06:31:51.733Z,8.30
2019-02-06T06:32:51.703Z,2.90
2019-02-06T06:33:52.628Z,3.30
2019-02-06T06:34:51.711Z,4.50
2019-02-06T06:35:51.666Z,4.40
2019-02-06T06:36:51.702Z,3.60
2019-02-06T06:37:59.940Z,2.80
2019-02-06T06:38:52.647Z,4.00
2019-02-06T06:39:51.628Z,3.10
2019-02-06T06:40:51.625Z,6.50
2019-02-06T06:41:51.630Z,3.50
2019-02-06T06:42:51.591Z,3.80
2019-02-06T06:43:51.584Z,4.40
2019-02-06T06:44:51.571Z,4.70
2019-02-06T06:45:51.585Z,2.80
2019-02-06T06:46:51.591Z,2.80
2019-02-06T06:47:51.540Z,3.40
2019-02-06T06:48:51.524Z,2.50
2019-02-06T06:49:51.518Z,4.40
2019-02-06T06:50:51.504Z,2.90
2019-02-06T06:51:51.544Z,5.10
2019-02-06T06:52:51.501Z,4.50
2019-02-06T06:53:51.479Z,2.70
2019-02-06T06:54:51.466Z,3.90
2019-02-06T06:55:51.455Z,1.60
2019-02-06T06:56:51.446Z,2.60
2019-02-06T06:57:51.454Z,6.60
2019-02-06T06:58:51.438Z,2.90
2019-02-06T06:59:51.410Z,3.00
2019-02-06T07:00:51.396Z,2.90
2019-02-06T07:01:51.405Z,3.50
2019-02-06T07:02:51.400Z,2.80
2019-02-06T07:03:51.383Z,4.00
2019-02-06T07:04:51.362Z,2.30
2019-02-06T07:05:51.347Z,2.40
2019-02-06T07:06:51.332Z,5.00
2019-02-06T07:07:51.339Z,2.00
2019-02-06T07:08:51.323Z,2.70
2019-02-06T07:09:51.312Z,2.20
2019-02-06T07:10:51.330Z,1.80
2019-02-06T07:11:51.282Z,5.40
2019-02-06T07:12:51.282Z,5.40
2019-02-06T07:13:51.654Z,2.00
2019-02-06T07:14:51.249Z,2.90
2019-02-06T07:15:51.255Z,3.60
2019-02-06T07:16:51.225Z,2.30
2019-02-06T07:17:51.252Z,2.50
2019-02-06T07:18:51.200Z,4.00
2019-02-06T07:19:51.203Z,2.00
2019-02-06T07:20:51.196Z,3.00
2019-02-06T07:21:51.176Z,3.30
2019-02-06T07:22:51.194Z,3.30
2019-02-06T07:23:51.155Z,2.40
2019-02-06T07:24:51.161Z,4.30
2019-02-06T07:25:51.131Z,3.60
2019-02-06T07:26:51.121Z,1.50
2019-02-06T07:27:51.133Z,2.50
2019-02-06T07:28:51.100Z,2.10
2019-02-06T07:29:51.090Z,3.20
2019-02-06T07:30:51.074Z,2.20
2019-02-06T07:31:51.079Z,2.80
2019-02-06T07:32:51.063Z,1.80
2019-02-06T07:33:51.063Z,2.20
2019-02-06T07:34:51.045Z,2.60
2019-02-06T07:35:51.022Z,3.60
2019-02-06T07:36:51.008Z,3.10
2019-02-06T07:37:51.018Z,2.30
2019-02-06T07:38:50.989Z,1.90
2019-02-06T07:39:50.999Z,2.90
2019-02-06T07:40:50.990Z,2.40
2019-02-06T07:41:51.034Z,2.00
2019-02-06T07:42:50.952Z,2.70
2019-02-06T07:43:51.041Z,2.50
2019-02-06T07:44:52.133Z,2.00
2019-02-06T07:45:50.917Z,3.90
2019-02-06T07:46:50.908Z,2.60
2019-02-06T07:47:51.090Z,2.10
2019-02-06T07:48:50.876Z,1.90
2019-02-06T07:49:50.884Z,2.80
2019-02-06T07:50:50.871Z,1.40
2019-02-06T07:51:50.865Z,1.50
2019-02-06T07:52:50.839Z,1.70
2019-02-06T07:53:50.850Z,1.90
2019-02-06T07:54:50.810Z,2.30
2019-02-06T07:55:50.819Z,2.40
2019-02-06T07:56:50.801Z,2.10
2019-02-06T07:57:50.789Z,3.90
2019-02-06T07:58:50.972Z,3.90
2019-02-06T07:59:50.763Z,2.10
2019-02-06T08:00:50.753Z,2.30
2019-02-06T08:01:50.741Z,1.30
2019-02-06T08:02:50.725Z,3.10
2019-02-06T08:03:53.763Z,1.80
2019-02-06T08:04:50.760Z,1.80
2019-02-06T08:05:50.696Z,1.40
2019-02-06T08:06:50.709Z,3.70
2019-02-06T08:07:50.688Z,3.10
2019-02-06T08:08:50.666Z,1.80
2019-02-06T08:09:50.750Z,2.00
2019-02-06T08:10:50.646Z,2.90
2019-02-06T08:11:50.632Z,2.20
2019-02-06T08:12:50.720Z,1.90
2019-02-06T08:13:50.624Z,3.20
2019-02-06T08:14:50.660Z,1.90
2019-02-06T08:15:50.595Z,1.40
2019-02-06T08:16:50.592Z,4.30
2019-02-06T08:17:50.588Z,1.80
2019-02-06T08:18:50.558Z,2.60
2019-02-06T08:19:50.560Z,2.50
2019-02-06T08:20:50.549Z,2.10
2019-02-06T08:21:50.571Z,2.70
2019-02-06T08:22:50.513Z,3.00
2019-02-06T08:23:50.510Z,2.40
2019-02-06T08:24:50.491Z,2.90
2019-02-06T08:25:50.509Z,3.30
2019-02-06T08:26:50.491Z,2.00
2019-02-06T08:27:50.461Z,1.90
2019-02-06T08:28:50.459Z,1.60
2019-02-06T08:29:50.439Z,1.60
2019-02-06T08:30:50.450Z,1.90
2019-02-06T08:31:50.426Z,1.60
2019-02-06T08:32:50.410Z,2.50
2019-02-06T08:33:50.401Z,1.70
2019-02-06T08:34:50.393Z,1.40
2019-02-06T08:35:50.393Z,2.60
2019-02-06T08:36:50.367Z,1.40
2019-02-06T08:37:50.363Z,1.90
2019-02-06T08:38:50.344Z,1.90
2019-02-06T08:39:50.334Z,5.10
2019-02-06T08:40:50.347Z,1.80
2019-02-06T08:41:50.314Z,2.30
2019-02-06T08:42:50.429Z,2.50
2019-02-06T08:43:50.311Z,2.70
2019-02-06T08:44:50.280Z,1.80
2019-02-06T08:45:50.285Z,2.00
2019-02-06T08:46:50.267Z,1.60
2019-02-06T08:47:50.259Z,2.10
2019-02-06T08:48:50.257Z,3.40
2019-02-06T08:49:50.224Z,1.90
2019-02-06T08:50:50.222Z,2.30
2019-02-06T08:51:50.205Z,1.70
2019-02-06T08:52:50.194Z,2.60
2019-02-06T08:53:50.205Z,1.60
2019-02-06T08:54:50.233Z,1.70
2019-02-06T08:55:50.187Z,2.40
2019-02-06T08:56:50.543Z,1.60
2019-02-06T08:57:50.137Z,2.20
2019-02-06T08:58:50.125Z,2.00
2019-02-06T08:59:50.120Z,2.40
2019-02-06T09:00:50.116Z,1.70
2019-02-06T09:01:50.108Z,1.80
2019-02-06T09:02:50.093Z,1.70
2019-02-06T09:03:50.071Z,2.30
2019-02-06T09:04:55.844Z,2.60
2019-02-06T09:05:51.076Z,2.10
2019-02-06T09:06:50.037Z,2.00
2019-02-06T09:07:50.032Z,1.50
2019-02-06T09:08:59.373Z,1.60
2019-02-06T09:09:51.005Z,1.70
2019-02-06T09:10:50.012Z,1.90
2019-02-06T09:11:49.980Z,1.80
2019-02-06T09:12:49.969Z,2.10
2019-02-06T09:13:50.033Z,2.00
2019-02-06T09:14:49.954Z,3.40
2019-02-06T09:15:49.956Z,3.10
2019-02-06T09:16:49.924Z,4.40
2019-02-06T09:17:49.915Z,1.50
2019-02-06T09:18:49.909Z,3.30
2019-02-06T09:19:49.908Z,1.90
2019-02-06T09:20:52.709Z,1.90
2019-02-06T09:21:49.885Z,1.10
2019-02-06T09:22:49.884Z,1.80
2019-02-06T09:23:49.852Z,1.80
2019-02-06T09:24:49.836Z,2.20
2019-02-06T09:25:49.823Z,3.00
2019-02-06T09:26:49.843Z,3.60
2019-02-06T09:27:49.802Z,2.20
2019-02-06T09:28:49.809Z,4.40
2019-02-06T09:29:49.796Z,2.60
2019-02-06T09:30:49.793Z,1.90
2019-02-06T09:31:49.777Z,0.90
2019-02-06T09:32:49.750Z,2.30
2019-02-06T09:33:49.750Z,1.70
2019-02-06T09:34:49.732Z,1.80
2019-02-06T09:35:49.711Z,1.60
2019-02-06T09:36:49.720Z,1.70
2019-02-06T09:37:49.700Z,2.30
2019-02-06T09:38:49.688Z,2.10
2019-02-06T09:39:49.680Z,2.00
2019-02-06T09:40:49.801Z,1.80
2019-02-06T09:41:49.663Z,1.90
2019-02-06T09:42:49.648Z,2.70
2019-02-06T09:43:49.642Z,1.50
2019-02-06T09:44:49.622Z,3.90
2019-02-06T09:45:49.609Z,2.10
2019-02-06T09:46:49.623Z,2.90
2019-02-06T09:47:49.582Z,1.40
2019-02-06T09:48:49.576Z,1.70
2019-02-06T09:49:50.026Z,1.80
2019-02-06T09:50:49.555Z,1.20
2019-02-06T09:51:49.567Z,1.60
2019-02-06T09:52:49.559Z,1.40
2019-02-06T09:53:49.539Z,1.70
2019-02-06T09:54:49.524Z,1.70
2019-02-06T09:55:49.493Z,1.40
2019-02-06T09:56:50.725Z,1.60
2019-02-06T09:57:49.496Z,1.50
2019-02-06T09:58:49.470Z,1.40
2019-02-06T09:59:49.455Z,1.90
2019-02-06T10:00:49.447Z,2.30
2019-02-06T10:01:49.427Z,1.60
2019-02-06T10:02:49.450Z,1.70
2019-02-06T10:03:49.427Z,1.50
2019-02-06T10:04:49.418Z,1.80
2019-02-06T10:05:49.398Z,1.10
2019-02-06T10:06:50.620Z,1.10
2019-02-06T10:07:49.391Z,2.10
2019-02-06T10:08:49.365Z,1.40
2019-02-06T10:09:49.359Z,1.90
2019-02-06T10:10:49.352Z,1.40
2019-02-06T10:11:49.324Z,1.20
2019-02-06T10:12:49.337Z,1.90
2019-02-06T10:13:49.301Z,2.40
2019-02-06T10:14:49.306Z,1.50
2019-02-06T10:15:49.287Z,1.40
2019-02-06T10:16:49.276Z,1.30
2019-02-06T10:17:49.270Z,1.50
2019-02-06T10:18:49.253Z,1.60
2019-02-06T10:19:49.236Z,3.80
2019-02-06T10:20:49.252Z,1.20
2019-02-06T10:21:51.405Z,1.00
2019-02-06T10:22:49.238Z,1.00
2019-02-06T10:23:49.198Z,1.10
2019-02-06T10:24:49.201Z,1.00
2019-02-06T10:25:49.172Z,2.50
2019-02-06T10:26:49.170Z,1.90
2019-02-06T10:27:49.178Z,1.80
2019-02-06T10:28:49.152Z,1.10
2019-02-06T10:29:49.137Z,1.10
2019-02-06T10:30:49.135Z,1.30
2019-02-06T10:31:49.132Z,1.40
2019-02-06T10:32:49.139Z,0.80
2019-02-06T10:33:49.101Z,0.70
2019-02-06T10:34:49.198Z,1.60
2019-02-06T10:35:51.967Z,1.40
2019-02-06T10:36:49.062Z,1.30
2019-02-06T10:37:49.061Z,1.90
2019-02-06T10:38:49.049Z,1.50
2019-02-06T10:39:49.044Z,1.50
2019-02-06T10:40:49.041Z,1.70
2019-02-06T10:41:49.006Z,1.90
2019-02-06T10:42:49.032Z,1.20
2019-02-06T10:43:49.004Z,0.80
2019-02-06T10:44:48.978Z,2.40
2019-02-06T10:45:48.960Z,3.90
2019-02-06T10:46:48.950Z,1.60
2019-02-06T10:47:48.938Z,1.30
2019-02-06T10:48:48.954Z,2.30
2019-02-06T10:49:48.933Z,1.50
2019-02-06T10:50:48.913Z,0.80
2019-02-06T10:51:48.913Z,1.30
2019-02-06T10:52:48.901Z,1.10
2019-02-06T10:53:48.882Z,2.10
2019-02-06T10:54:48.875Z,1.60
2019-02-06T10:55:48.848Z,1.60
2019-02-06T10:56:48.887Z,2.20
2019-02-06T10:57:48.866Z,2.10
2019-02-06T10:58:48.882Z,2.20
2019-02-06T10:59:48.807Z,4.90
2019-02-06T11:00:48.822Z,2.00
2019-02-06T11:01:48.785Z,3.00
2019-02-06T11:02:48.786Z,1.20
2019-02-06T11:03:48.775Z,2.10
2019-02-06T11:04:48.758Z,0.90
2019-02-06T11:05:48.751Z,1.80
2019-02-06T11:06:48.746Z,1.30
2019-02-06T11:07:48.728Z,3.40
2019-02-06T11:08:48.756Z,2.20
2019-02-06T11:09:48.699Z,2.50
2019-02-06T11:10:48.708Z,3.40
2019-02-06T11:11:48.695Z,1.50
2019-02-06T11:12:48.693Z,2.40
2019-02-06T11:13:49.816Z,2.70
2019-02-06T11:14:48.659Z,1.60
2019-02-06T11:15:48.653Z,2.40
2019-02-06T11:16:48.631Z,2.00
2019-02-06T11:17:48.645Z,1.20
2019-02-06T11:18:48.626Z,1.70
2019-02-06T11:19:48.594Z,1.00
2019-02-06T11:20:48.589Z,1.30
2019-02-06T11:21:48.572Z,4.20
2019-02-06T11:22:48.584Z,1.70
2019-02-06T11:23:48.566Z,2.40
2019-02-06T11:24:48.544Z,6.50
2019-02-06T11:25:48.528Z,0.80
2019-02-06T11:26:48.518Z,2.40
2019-02-06T11:27:48.506Z,2.50
2019-02-06T11:28:48.529Z,1.90
2019-02-06T11:29:48.679Z,1.00
2019-02-06T11:30:48.504Z,2.30
2019-02-06T11:31:48.462Z,3.30
2019-02-06T11:32:48.456Z,0.90
2019-02-06T11:33:48.446Z,1.50
2019-02-06T11:34:48.431Z,2.70
2019-02-06T11:35:48.425Z,1.90
2019-02-06T11:36:48.430Z,1.00
2019-02-06T11:37:48.416Z,2.50
2019-02-06T11:38:48.410Z,4.00
2019-02-06T11:39:57.472Z,3.20
2019-02-06T11:40:49.365Z,1.40
2019-02-06T11:41:48.360Z,1.40
2019-02-06T11:42:48.353Z,1.30
2019-02-06T11:43:48.343Z,1.70
2019-02-06T11:44:48.369Z,2.40
2019-02-06T11:45:48.313Z,2.50
2019-02-06T11:46:48.295Z,1.40
2019-02-06T11:47:48.297Z,1.70
2019-02-06T11:48:48.308Z,1.70
2019-02-06T11:49:48.295Z,2.60
2019-02-06T11:50:48.254Z,1.80
2019-02-06T11:51:48.254Z,1.00
2019-02-06T11:52:48.230Z,2.50
2019-02-06T11:53:48.243Z,1.30
2019-02-06T11:54:48.252Z,1.70
2019-02-06T11:55:48.201Z,1.90
2019-02-06T11:56:48.189Z,1.70
2019-02-06T11:57:48.187Z,1.30
2019-02-06T11:58:48.201Z,3.40
2019-02-06T11:59:48.164Z,1.60
2019-02-06T12:00:48.760Z,2.80
2019-02-06T12:01:48.137Z,1.30
2019-02-06T12:02:48.119Z,1.50
2019-02-06T12:03:48.148Z,1.70
2019-02-06T12:04:48.102Z,1.80
2019-02-06T12:05:48.108Z,1.80
2019-02-06T12:06:48.100Z,3.20
2019-02-06T12:07:48.103Z,1.70
2019-02-06T12:08:48.059Z,1.30
2019-02-06T12:09:48.061Z,1.50
2019-02-06T12:10:48.036Z,1.20
2019-02-06T12:11:48.053Z,1.10
2019-02-06T12:12:48.007Z,1.10
2019-02-06T12:13:48.008Z,1.60
2019-02-06T12:14:48.001Z,1.80
2019-02-06T12:15:47.993Z,1.50
2019-02-06T12:16:48.048Z,1.90
2019-02-06T12:17:48.380Z,2.60
2019-02-06T12:18:47.959Z,1.40
2019-02-06T12:19:47.950Z,0.90
2019-02-06T12:20:47.933Z,1.80
2019-02-06T12:21:47.925Z,1.30
2019-02-06T12:22:47.900Z,2.10
2019-02-06T12:23:47.945Z,1.30
2019-02-06T12:24:47.910Z,2.00
2019-02-06T12:25:47.880Z,1.90
2019-02-06T12:26:47.864Z,2.10
2019-02-06T12:27:47.866Z,2.10
2019-02-06T12:28:47.858Z,1.50
2019-02-06T12:29:47.851Z,1.90
2019-02-06T12:30:47.875Z,1.50
2019-02-06T12:31:47.804Z,1.00
2019-02-06T12:32:52.283Z,4.30
2019-02-06T12:33:47.796Z,1.50
2019-02-06T12:34:47.779Z,1.90
2019-02-06T12:35:47.774Z,1.80
2019-02-06T12:36:47.750Z,1.60
2019-02-06T12:37:47.743Z,5.00
2019-02-06T12:38:53.479Z,5.40
2019-02-06T12:39:48.741Z,1.40
2019-02-06T12:40:47.720Z,2.70
2019-02-06T12:41:47.713Z,1.60
2019-02-06T12:42:47.696Z,1.40
2019-02-06T12:43:47.672Z,1.90
2019-02-06T12:44:47.788Z,2.00
2019-02-06T12:45:47.655Z,1.70
2019-02-06T12:46:47.650Z,1.40
2019-02-06T12:47:47.730Z,1.00
2019-02-06T12:48:47.614Z,1.80
2019-02-06T12:49:47.633Z,5.40
2019-02-06T12:50:47.603Z,1.50
2019-02-06T12:51:47.588Z,1.60
2019-02-06T12:52:47.661Z,1.90
2019-02-06T12:53:47.571Z,1.20
2019-02-06T12:54:47.593Z,1.40
2019-02-06T12:55:47.557Z,2.70
2019-02-06T12:56:47.529Z,1.70
2019-02-06T12:57:47.524Z,2.00
2019-02-06T12:58:47.511Z,1.60
2019-02-06T12:59:47.518Z,4.30
2019-02-06T13:00:47.483Z,4.40
2019-02-06T13:01:47.477Z,0.90
2019-02-06T13:02:47.476Z,2.30
2019-02-06T13:03:47.477Z,1.50
2019-02-06T13:04:47.481Z,3.80
2019-02-06T13:05:47.436Z,2.70
2019-02-06T13:06:47.422Z,2.80
2019-02-06T13:07:47.414Z,1.80
2019-02-06T13:08:47.414Z,2.90
2019-02-06T13:09:47.403Z,2.10
2019-02-06T13:10:47.400Z,2.00
2019-02-06T13:11:47.397Z,2.50
2019-02-06T13:12:47.356Z,2.10